Date,TemperatureHighF,TemperatureAvgF,TemperatureLowF,DewpointHighF,DewpointAvgF,DewpointLowF,HumidityHigh,HumidityAvg,HumidityLow,PressureMaxIn,PressureMinIn,WindSpeedMaxMPH,WindSpeedAvgMPH,GustSpeedMaxMPH,PrecipitationSumIn
2013-1-1,17,15,13,7,6,4,70,66,61,0.00,40.00,8,6,0,0.00
2013-1-2,23,19,15,15,13,9,83,79,72,0.00,40.00,6,4,0,0.00
2013-1-3,27,22,20,19,16,13,80,75,69,0.00,40.00,9,6,0,0.00
2013-1-4,28,22,17,21,16,12,82,77,69,0.00,40.00,12,9,0,0.00
2013-1-5,34,22,7,27,17,5,93,82,58,0.00,40.00,7,3,0,0.05
2013-1-6,30,25,11,25,18,9,92,77,61,0.00,40.00,13,6,0,0.00
2013-1-7,35,26,9,23,16,7,91,66,48,0.00,40.00,10,7,0,0.00
2013-1-8,37,32,25,34,27,22,88,80,63,0.00,40.00,12,7,0,0.00
2013-1-9,39,36,32,30,27,24,79,69,58,0.00,40.00,9,8,0,0.00
2013-1-10,38,30,20,33,26,18,93,83,67,0.00,40.00,7,3,0,0.06
2013-1-11,42,38,35,41,38,34,98,97,94,0.00,40.00,10,6,0,0.05
2013-1-12,45,38,27,43,33,19,98,80,69,0.00,40.00,13,9,0,0.00
2013-1-13,25,23,20,17,15,14,75,72,68,0.00,40.00,7,5,0,0.00
2013-1-14,21,15,11,9,7,5,78,70,58,0.00,40.00,8,7,0,0.00
2013-1-15,29,19,8,13,9,4,82,66,50,0.00,40.00,8,5,0,0.00
2013-1-16,30,26,22,24,16,12,78,67,56,0.00,40.00,10,7,0,0.00
2013-1-17,23,16,10,11,3,-4,69,58,40,0.00,40.00,9,7,0,0.00
2013-1-18,29,18,9,24,11,-2,86,76,58,0.00,40.00,11,4,0,0.01
2013-1-19,38,27,19,32,24,18,94,89,73,0.00,40.00,10,4,0,0.01
2013-1-20,16,10,7,9,-1,-5,74,60,51,0.00,40.00,16,10,0,0.00
2013-1-21,4,-2,-8,-7,-14,-22,68,56,44,0.00,40.00,11,9,0,0.00
2013-1-22,2,-4,-9,-11,-15,-20,64,56,45,0.00,40.00,9,7,0,0.00
2013-1-23,10,4,-3,6,-4,-12,82,70,61,0.00,40.00,10,6,0,0.00
2013-1-24,11,6,2,3,-2,-5,74,67,54,0.00,40.00,11,5,0,0.00
2013-1-25,18,14,10,15,11,5,93,88,77,0.00,40.00,6,3,0,0.00
2013-1-26,23,14,7,12,8,4,90,77,62,0.00,40.00,6,3,0,0.05
2013-1-27,34,28,21,31,23,14,98,82,71,0.00,40.00,10,6,0,0.06
2013-1-28,34,32,31,33,32,29,98,97,93,0.00,40.00,9,4,0,0.08
2013-1-29,42,36,33,41,36,31,98,96,91,0.00,40.00,9,6,0,0.07
2013-1-30,33,25,15,32,24,13,97,94,90,0.00,40.00,13,11,0,0.00
2013-1-31,15,12,9,6,5,4,79,73,61,0.00,40.00,8,7,0,0.00
2013-2-1,6,3,0,1,-5,-10,78,69,60,0.00,40.00,8,7,0,0.00
2013-2-2,13,4,1,-2,-6,-9,69,62,50,0.00,40.00,5,4,0,0.00
2013-2-3,15,9,5,4,0,-3,80,68,55,0.00,40.00,8,4,0,0.00
2013-2-4,16,6,-7,0,-3,-10,84,67,43,0.00,40.00,5,3,0,0.00
2013-2-5,21,14,5,14,7,-3,90,71,56,0.00,40.00,6,4,0,0.00
2013-2-6,21,12,-7,18,6,-10,93,79,58,0.00,40.00,3,1,0,0.04
2013-2-7,32,26,18,31,25,16,98,96,92,0.00,40.00,12,5,0,0.00
2013-2-8,26,19,9,18,13,6,92,78,56,0.00,40.00,12,7,0,0.00
2013-2-9,29,14,-6,24,10,-9,88,84,78,0.00,40.00,5,3,0,0.00
2013-2-10,37,29,19,36,27,17,97,91,83,0.00,40.00,12,6,0,0.24
2013-2-11,39,34,29,39,30,18,98,85,65,0.00,40.00,11,9,0,0.00
2013-2-12,26,24,23,19,17,15,76,73,70,0.00,40.00,10,7,0,0.00
2013-2-13,33,27,18,25,22,15,89,81,73,0.00,40.00,8,4,0,0.00
2013-2-14,31,29,22,30,26,13,97,90,68,0.00,40.00,10,6,0,0.00
2013-2-15,22,16,11,14,8,4,81,70,60,0.00,40.00,7,5,0,0.00
2013-2-16,19,11,5,3,1,-2,81,64,45,0.00,40.00,7,5,0,0.00
2013-2-17,18,6,-8,2,-3,-12,86,68,42,0.00,40.00,4,2,0,0.00
2013-2-18,38,32,22,34,26,14,95,79,69,0.00,40.00,14,10,0,0.02
2013-2-19,32,21,11,31,18,3,98,88,69,0.00,40.00,7,2,0,0.00
2013-2-20,22,14,7,9,5,2,77,69,58,0.00,40.00,12,9,0,0.00
2013-2-21,23,17,9,19,12,5,87,83,78,0.00,40.00,11,6,0,0.00
2013-2-22,28,26,23,27,23,18,97,90,77,0.00,40.00,5,3,0,0.00
2013-2-23,29,25,20,25,21,19,97,87,73,0.00,40.00,7,3,0,0.00
2013-2-24,34,27,21,25,21,18,95,79,61,0.00,40.00,5,4,0,0.16
2013-2-25,37,28,15,27,22,14,95,78,56,0.00,40.00,4,2,0,0.02
2013-2-26,33,28,19,26,23,18,96,83,69,0.00,40.00,12,5,0,0.00
2013-2-27,32,30,28,30,28,25,95,90,80,0.00,40.00,11,10,0,0.12
2013-2-28,31,28,25,30,24,19,93,84,72,0.00,40.00,13,11,0,0.00
2013-3-1,26,22,18,16,15,10,84,74,61,0.00,40.00,12,9,0,0.00
2013-3-2,28,16,0,14,9,-3,90,72,52,0.00,40.00,9,6,0,0.00
2013-3-3,31,14,0,12,6,-3,90,71,42,0.00,40.00,6,3,0,0.00
2013-3-4,29,13,-6,17,7,-9,92,78,57,0.00,40.00,5,2,0,0.00
2013-3-5,31,22,5,21,16,2,92,79,65,0.00,40.00,11,5,0,0.00
2013-3-6,33,29,26,28,25,22,88,84,78,0.00,40.00,7,6,0,0.00
2013-3-7,32,20,5,22,12,3,93,72,43,0.00,40.00,6,2,0,0.00
2013-3-8,36,26,9,27,20,7,92,79,58,0.00,40.00,7,3,0,0.00
2013-3-9,37,33,23,33,29,22,96,85,74,0.00,40.00,13,8,0,0.39
2013-3-10,36,34,32,35,32,31,97,93,88,0.00,40.00,10,8,0,0.39
2013-3-11,34,32,27,33,30,22,98,93,79,0.00,40.00,10,7,0,0.15
2013-3-12,29,25,19,24,18,12,92,75,69,0.00,40.00,9,7,0,0.01
2013-3-13,32,24,19,15,11,4,83,59,30,0.00,40.00,11,8,0,0.00
2013-3-14,35,24,10,24,13,7,91,63,38,0.00,40.00,9,4,0,0.00
2013-3-15,32,28,19,26,20,14,87,72,53,0.00,40.00,9,7,0,0.00
2013-3-16,28,21,17,15,13,8,90,70,44,0.00,40.00,8,5,0,0.04
2013-3-17,24,18,8,12,7,-1,89,64,53,0.00,40.00,9,4,0,0.00
2013-3-18,31,27,20,28,21,13,97,80,62,0.00,40.00,9,5,0,0.00
2013-3-19,29,22,16,24,14,7,94,73,53,0.00,40.00,9,8,0,0.00
2013-3-20,24,17,10,15,7,1,82,62,49,0.00,40.00,9,6,0,0.00
2013-3-21,30,22,15,15,12,10,81,68,48,0.00,40.00,9,6,0,0.05
2013-3-22,32,23,13,23,16,9,86,74,61,0.00,40.00,6,3,0,0.00
2013-3-23,35,29,25,23,21,20,83,72,55,0.00,40.00,6,4,0,0.00
2013-3-24,33,29,26,24,21,19,80,72,54,0.00,40.00,11,6,0,0.00
2013-3-25,37,30,25,24,22,21,86,75,55,0.00,40.00,12,9,0,0.00
2013-3-26,38,32,29,28,26,23,84,76,60,0.00,40.00,8,5,0,0.00
2013-3-27,45,34,23,22,20,17,84,60,32,0.00,40.00,6,4,0,0.00
2013-3-28,47,32,21,22,18,17,86,60,31,0.00,40.00,4,2,0,0.00
2013-3-29,46,32,18,21,19,15,94,61,31,0.00,40.00,4,2,0,0.00
2013-3-30,40,36,27,38,23,-100,96,67,49,0.00,40.00,11,6,0,0.15
2013-3-31,41,35,27,36,29,19,97,79,55,0.00,40.00,12,7,0,0.01
2013-4-1,32,26,19,18,13,10,74,58,39,0.00,40.00,9,7,0,0.00
2013-4-2,36,26,16,14,12,10,81,54,32,0.00,40.00,7,4,0,0.00
2013-4-3,37,27,15,20,12,7,82,55,28,0.00,40.00,8,4,0,0.00
2013-4-4,47,38,30,32,24,18,68,56,45,0.00,40.00,10,7,0,0.00
2013-4-5,38,32,27,24,20,14,75,62,36,0.00,40.00,8,5,0,0.00
2013-4-6,41,35,29,38,29,22,94,77,64,0.00,40.00,15,9,0,0.11
2013-4-7,45,38,34,43,32,29,97,82,58,0.00,40.00,8,6,0,0.07
2013-4-8,36,35,34,35,33,31,97,91,84,0.00,40.00,7,4,0,0.13
2013-4-9,37,34,30,35,32,25,98,93,80,0.00,40.00,12,6,0,0.30
2013-4-10,38,33,29,29,28,25,96,84,67,0.00,40.00,10,7,0,0.40
2013-4-11,32,30,29,29,27,26,97,89,78,0.00,40.00,8,6,0,0.01
2013-4-12,33,30,26,32,29,26,98,96,94,0.00,40.00,8,5,0,0.39
2013-4-13,37,31,24,30,27,24,98,86,63,0.00,40.00,7,4,0,0.09
2013-4-14,38,31,17,30,25,16,96,79,59,0.00,40.00,6,3,0,0.01
2013-4-15,56,45,37,45,36,27,96,74,45,0.00,40.00,10,7,0,0.15
2013-4-16,49,40,34,30,28,25,74,61,40,0.00,40.00,9,5,0,0.00
2013-4-17,41,35,26,34,30,25,96,81,64,0.00,40.00,7,3,0,0.00
2013-4-18,44,38,35,43,37,34,98,96,92,0.00,40.00,8,4,0,0.28
2013-4-19,46,35,25,46,27,14,97,72,49,0.00,40.00,12,10,0,0.00
2013-4-20,40,29,23,22,15,8,76,58,28,0.00,40.00,11,6,0,0.00
2013-4-21,41,34,26,31,24,19,88,68,43,0.00,40.00,14,8,0,0.00
2013-4-22,52,42,38,38,34,27,92,75,54,0.00,40.00,12,8,0,0.11
2013-4-23,46,40,34,43,34,29,95,79,66,0.00,40.00,8,4,0,0.03
2013-4-24,51,39,29,28,23,17,87,57,25,0.00,40.00,7,4,0,0.00
2013-4-25,49,43,34,33,27,22,89,55,34,0.00,40.00,9,6,0,0.00
2013-4-26,57,43,28,46,33,24,86,67,52,0.00,40.00,18,8,0,0.02
2013-4-27,63,56,45,49,44,34,92,65,44,0.00,40.00,14,7,0,0.00
2013-4-28,69,55,42,41,37,34,80,54,27,0.00,40.00,7,4,0,0.00
2013-4-29,56,48,43,52,45,40,95,91,82,0.00,40.00,8,4,0,0.10
2013-4-30,62,58,49,52,50,46,89,74,67,0.00,40.00,19,13,0,0.00
2013-5-1,68,58,44,50,46,34,85,63,44,0.00,40.00,12,7,0,0.00
2013-5-2,49,41,35,36,34,31,88,76,61,0.00,40.00,14,11,0,0.02
2013-5-3,47,40,34,39,36,32,94,83,71,0.00,40.00,12,9,0,0.08
2013-5-4,71,54,39,46,41,36,92,65,34,0.00,40.00,8,5,0,0.00
2013-5-5,69,51,37,43,38,35,94,65,30,0.00,40.00,6,3,0,0.00
2013-5-6,70,55,38,43,38,34,90,57,27,0.00,40.00,6,3,0,0.00
2013-5-7,75,54,36,44,36,28,95,58,17,0.00,40.00,5,1,0,0.00
2013-5-8,75,60,39,39,35,28,88,44,22,0.00,40.00,5,2,0,0.00
2013-5-9,63,50,38,44,40,36,92,69,48,0.00,40.00,12,6,0,0.13
2013-5-10,47,38,34,38,33,-100,95,87,67,0.00,40.00,12,7,0,0.25
2013-5-11,46,37,29,40,31,-100,97,83,49,0.00,40.00,11,5,0,0.27
2013-5-12,44,38,32,28,25,22,76,60,43,0.00,40.00,12,9,0,0.00
2013-5-13,52,38,25,29,24,19,94,60,30,0.00,40.00,11,5,0,0.00
2013-5-14,60,50,41,44,37,29,73,62,48,0.00,40.00,13,8,0,0.01
2013-5-15,75,58,44,47,42,35,90,60,22,0.00,40.00,12,5,0,0.00
2013-5-16,65,49,46,42,19,-100,81,52,34,0.00,40.00,5,2,0,0.00
2013-5-17,59,48,43,44,32,-100,82,71,54,0.00,40.00,4,2,0,0.00
2013-5-18,67,57,50,45,44,43,82,64,44,0.00,40.00,7,3,0,0.00
2013-5-19,77,64,52,61,54,44,90,70,56,0.00,40.00,8,4,0,0.00
2013-5-20,76,63,54,63,56,51,96,79,50,0.00,40.00,10,5,0,0.08
2013-5-21,68,60,53,61,56,49,97,86,74,0.00,40.00,10,3,0,0.03
2013-5-22,53,51,48,53,50,47,98,97,93,0.00,40.00,8,5,0,0.07
2013-5-23,48,44,40,48,36,29,97,74,52,0.00,40.00,12,10,0,0.16
2013-5-24,57,45,31,38,34,29,93,67,41,0.00,40.00,6,3,0,0.00
2013-5-25,61,47,30,38,33,29,97,64,30,0.00,40.00,4,1,0,0.00
2013-5-26,63,48,32,39,33,29,96,63,29,0.00,40.00,4,1,0,0.00
2013-5-27,66,52,35,46,39,33,95,62,37,0.00,40.00,7,2,0,0.00
2013-5-28,54,52,50,53,49,41,97,89,66,0.00,40.00,2,1,0,0.06
2013-5-29,63,57,49,59,55,48,98,91,78,0.00,40.00,7,3,0,0.00
2013-5-30,73,66,59,63,60,56,94,80,65,0.00,40.00,11,7,0,0.00
2013-5-31,71,61,53,61,57,52,96,86,70,0.00,40.00,9,7,0,0.00
2013-6-1,76,62,55,64,57,-100,96,87,65,0.00,40.00,8,4,0,0.31
2013-6-2,57,48,39,48,41,37,96,79,52,0.00,40.00,9,6,0,0.24
2013-6-3,66,50,38,46,41,36,95,75,38,0.00,40.00,6,2,0,0.00
2013-6-4,57,47,35,43,37,28,96,72,34,0.00,40.00,2,1,0,0.00
2013-6-5,58,51,46,48,45,38,90,80,68,0.00,40.00,2,1,0,0.01
2013-6-6,59,52,47,47,44,41,90,74,52,0.00,40.00,4,2,0,0.06
2013-6-7,69,57,45,48,43,39,94,63,35,0.00,40.00,4,2,0,0.00
2013-6-8,71,56,40,50,44,39,96,68,33,0.00,40.00,5,1,0,0.00
2013-6-9,72,58,41,56,50,40,97,77,55,0.00,40.00,3,1,0,0.00
2013-6-10,73,64,54,59,55,50,93,73,61,0.00,40.00,5,1,0,0.00
2013-6-11,80,63,49,62,56,48,97,80,50,0.00,40.00,6,2,0,0.00
2013-6-12,77,64,51,60,52,47,97,68,37,0.00,40.00,4,1,0,0.00
2013-6-13,68,62,57,52,50,48,80,65,53,0.00,40.00,10,7,0,0.00
2013-6-14,72,59,45,49,42,32,92,59,26,0.00,40.00,4,2,0,0.00
2013-6-15,67,59,51,60,49,33,96,70,42,0.00,40.00,5,2,0,0.94
2013-6-16,80,67,60,62,58,52,97,76,39,0.00,40.00,6,3,0,0.06
2013-6-17,67,60,53,57,54,46,95,80,65,0.00,40.00,5,2,0,0.14
2013-6-18,69,56,42,48,44,35,93,66,28,0.00,40.00,5,2,0,0.00
2013-6-19,70,60,38,49,43,37,97,56,40,0.00,40.00,8,5,0,0.00
2013-6-20,79,66,48,58,48,41,85,54,46,0.00,40.00,7,3,0,0.00
2013-6-22,68,63,59,61,59,57,94,86,76,0.00,40.00,4,2,0,0.00
2013-6-23,75,65,58,67,62,57,96,90,70,0.00,40.00,10,3,0,0.03
2013-6-25,80,74,65,67,65,63,94,76,55,0.00,40.00,5,3,0,0.01
2013-6-26,78,70,61,67,64,60,96,81,66,0.00,40.00,7,4,0,0.00
2013-6-27,76,67,61,67,63,58,95,87,71,0.00,40.00,3,2,0,0.22
2013-6-28,73,65,58,64,61,56,96,85,67,0.00,40.00,7,3,0,0.01
2013-6-29,72,64,60,60,56,47,93,74,55,0.00,40.00,9,7,0,0.00
2013-6-30,76,66,58,49,46,41,70,49,29,0.00,40.00,8,5,0,0.00
2013-7-1,77,70,55,58,53,49,82,55,43,0.00,40.00,4,2,0,0.00
2013-7-2,74,63,45,53,45,36,96,58,26,0.00,40.00,3,1,0,0.00
2013-7-3,77,66,58,57,52,48,93,62,38,0.00,40.00,3,1,0,0.00
2013-7-4,76,68,60,63,59,55,92,74,55,0.00,40.00,9,4,0,0.00
2013-7-5,83,73,59,63,59,55,94,63,44,0.00,40.00,10,5,0,0.00
2013-7-6,84,74,70,63,59,57,68,60,46,0.00,40.00,9,5,0,0.00
2013-7-7,84,76,70,70,66,60,88,71,61,0.00,40.00,5,3,0,0.00
2013-7-8,77,68,64,67,65,62,96,91,68,0.00,40.00,5,2,0,1.54
2013-7-9,73,67,60,66,64,59,97,92,80,0.00,40.00,7,3,0,0.55
2013-7-10,75,67,60,70,55,-100,95,70,50,0.00,40.00,7,4,0,0.00
2013-7-11,78,65,54,60,55,49,95,72,40,0.00,40.00,5,3,0,0.00
2013-7-12,81,71,49,59,55,46,96,60,38,0.00,40.00,6,4,0,0.00
2013-7-13,81,70,61,64,59,56,95,71,49,0.00,40.00,7,4,0,0.00
2013-7-14,85,73,62,66,62,54,89,71,50,0.00,40.00,6,3,0,0.00
2013-7-15,88,74,63,69,65,61,95,76,47,0.00,40.00,4,2,0,0.00
2013-7-16,88,77,65,74,69,63,95,77,58,0.00,40.00,6,3,0,0.00
2013-7-17,89,80,75,74,72,70,91,76,56,0.00,40.00,4,2,0,0.09
2013-7-18,91,84,76,72,70,69,88,64,50,0.00,40.00,7,4,0,0.00
2013-7-19,86,80,67,71,68,64,90,67,53,0.00,40.00,8,5,0,0.01
2013-7-20,73,64,54,61,51,-100,95,65,41,0.00,40.00,6,2,0,0.00
2013-7-21,68,60,48,57,53,46,94,77,60,0.00,40.00,2,1,0,0.00
2013-7-22,80,68,50,68,61,49,96,81,64,0.00,40.00,8,4,0,0.01
2013-7-23,73,64,55,65,50,45,76,62,50,0.00,40.00,10,6,0,0.00
2013-7-24,73,63,45,53,49,42,96,62,44,0.00,40.00,5,3,0,0.00
2013-7-25,75,66,55,59,55,50,92,68,48,0.00,40.00,11,5,0,0.00
2013-7-26,69,63,59,64,60,57,96,90,77,0.00,40.00,7,3,0,1.56
2013-7-27,61,55,51,53,47,45,91,75,59,0.00,40.00,8,4,0,0.00
2013-7-28,56,54,52,54,51,48,93,87,78,0.00,40.00,7,4,0,0.40
2013-7-29,71,59,52,58,52,49,90,78,53,0.00,40.00,7,4,0,0.00
2013-7-30,73,63,49,60,53,48,96,73,53,0.00,40.00,5,2,0,0.00
2013-7-31,74,67,59,65,60,52,92,79,65,0.00,40.00,7,2,0,0.00
2013-8-1,73,64,54,62,56,52,95,77,50,0.00,40.00,4,1,0,0.05
2013-8-2,76,67,59,58,55,52,94,66,48,0.00,40.00,4,2,0,0.05
2013-8-3,73,64,52,57,54,51,96,70,49,0.00,40.00,5,3,0,0.00
2013-8-4,69,60,47,54,51,46,95,74,49,0.00,40.00,5,3,0,0.01
2013-8-5,66,62,49,62,57,47,96,83,59,0.00,40.00,8,5,0,0.07
2013-8-6,77,67,60,65,62,59,95,85,67,0.00,40.00,5,3,0,0.00
2013-8-7,73,65,56,65,60,54,96,84,63,0.00,40.00,7,3,0,0.75
2013-8-8,75,61,45,58,51,44,97,72,43,0.00,40.00,5,2,0,0.00
2013-8-9,74,66,52,60,54,49,95,67,43,0.00,40.00,6,2,0,0.00
2013-8-10,73,62,52,58,54,50,96,76,47,0.00,40.00,3,1,0,0.00
2013-8-11,75,65,57,59,56,52,95,76,45,0.00,40.00,5,2,0,0.00
2013-8-12,73,62,54,64,58,45,97,85,59,0.00,40.00,9,3,0,0.01
2013-8-13,63,57,53,51,46,41,83,69,53,0.00,40.00,7,6,0,0.02
2013-8-14,67,56,40,51,46,38,96,71,46,0.00,40.00,4,2,0,0.00
2013-8-15,77,58,50,58,42,-100,95,68,37,0.00,40.00,4,2,0,0.00
2013-8-16,78,62,48,60,45,-100,96,66,39,0.00,40.00,3,2,0,0.00
2013-8-17,80,70,51,62,51,-100,96,56,35,0.00,40.00,7,3,0,0.00
2013-8-18,78,68,51,60,55,45,96,63,47,0.00,40.00,6,3,0,0.00
2013-8-19,81,67,63,61,51,-100,89,65,43,0.00,40.00,6,3,0,0.00
2013-8-20,83,74,68,66,63,59,84,69,50,0.00,40.00,7,4,0,0.00
2013-8-21,86,77,66,69,66,63,94,69,58,0.00,40.00,7,4,0,0.47
2013-8-22,80,68,55,65,59,50,96,76,37,0.00,40.00,4,2,0,0.00
2013-8-23,77,63,48,59,54,47,96,76,47,0.00,40.00,4,1,0,0.00
2013-8-24,78,66,52,61,55,-100,96,73,44,0.00,40.00,7,4,0,0.00
2013-8-25,89,78,68,69,65,59,76,64,51,0.00,40.00,9,6,0,0.00
2013-8-26,83,76,70,69,67,65,93,74,62,0.00,40.00,8,3,0,0.19
2013-8-27,77,71,68,72,68,65,96,91,81,0.00,40.00,5,2,0,0.86
2013-8-28,83,77,66,67,65,62,95,68,50,0.00,40.00,4,2,0,0.00
2013-8-29,84,72,59,70,65,59,96,80,58,0.00,40.00,5,2,0,0.01
2013-8-30,78,72,65,71,65,61,88,77,64,0.00,40.00,9,6,0,0.09
2013-8-31,75,65,58,64,60,-100,96,87,69,0.00,40.00,5,2,0,0.00
2013-9-1,78,68,62,67,63,60,96,86,63,0.00,40.00,6,3,0,0.06
2013-9-2,62,59,55,58,51,47,88,74,64,0.00,40.00,7,6,0,0.00
2013-9-3,72,62,50,55,52,47,94,71,46,0.00,40.00,5,3,0,0.00
2013-9-4,68,63,55,57,54,51,86,74,62,0.00,40.00,5,3,0,0.00
2013-9-5,67,57,42,48,46,41,95,68,48,0.00,40.00,4,2,0,0.00
2013-9-6,76,62,47,64,54,45,94,77,53,0.00,40.00,8,4,0,0.00
2013-9-7,82,71,63,68,61,-100,88,72,58,0.00,40.00,8,4,0,0.00
2013-9-8,71,61,49,58,52,48,96,75,47,0.00,40.00,5,1,0,0.00
2013-9-9,73,66,60,70,63,58,95,90,84,0.00,40.00,8,5,0,0.00
2013-9-10,87,80,71,70,66,63,76,63,53,0.00,40.00,7,4,0,0.00
2013-9-11,79,73,66,66,63,59,90,71,58,0.00,40.00,5,3,0,0.00
2013-9-12,65,60,52,57,52,43,89,76,62,0.00,40.00,9,5,0,0.00
2013-9-13,60,51,38,44,40,37,94,67,48,0.00,40.00,8,5,0,0.00
2013-9-14,67,54,36,51,42,-100,96,70,46,0.00,40.00,6,3,0,0.00
2013-9-15,62,56,48,54,49,39,95,77,59,0.00,40.00,8,4,0,0.01
2013-9-16,59,49,35,42,39,34,94,70,47,0.00,40.00,5,2,0,0.00
2013-9-17,64,51,32,52,45,31,97,82,61,0.00,40.00,7,3,0,0.00
2013-9-18,65,58,53,63,55,50,93,91,89,0.00,40.00,7,3,0,0.01
2013-9-19,80,68,62,69,65,61,96,90,68,0.00,40.00,9,6,0,0.27
2013-9-20,71,68,59,66,62,50,94,82,64,0.00,40.00,7,4,0,0.00
2013-9-21,58,52,49,49,41,-100,83,68,56,0.00,40.00,7,6,0,0.00
2013-9-22,53,49,44,43,39,36,92,70,58,0.00,40.00,5,2,0,0.00
2013-9-23,59,50,35,46,43,34,96,79,59,0.00,40.00,7,2,0,0.00
2013-9-24,67,54,36,54,48,35,97,80,59,0.00,40.00,5,2,0,0.00
2013-9-25,68,51,37,56,46,36,97,86,54,0.00,40.00,2,0,0,0.00
2013-9-26,72,56,38,57,48,37,97,78,45,0.00,40.00,4,2,0,0.00
2013-9-27,73,61,41,59,52,40,97,76,56,0.00,40.00,8,4,0,0.00
2013-9-28,70,63,52,59,54,-100,95,77,62,0.00,40.00,12,8,0,0.18
2013-9-29,67,57,52,56,49,44,94,76,48,0.00,40.00,5,3,0,0.00
2013-9-30,68,58,48,53,46,39,83,65,45,0.00,40.00,9,5,0,0.00
2013-10-1,72,68,63,55,51,45,57,55,52,0.00,40.00,5,3,0,0.00
2013-10-2,72,59,47,51,43,32,90,59,23,0.00,40.00,5,2,0,0.00
2013-10-3,68,58,46,55,52,44,96,81,61,0.00,40.00,6,2,0,0.00
2013-10-4,58,57,56,57,56,54,96,95,93,0.00,40.00,6,3,0,0.35
2013-10-5,61,59,57,60,58,56,96,96,93,0.00,40.00,4,2,0,1.17
2013-10-6,62,58,50,61,52,42,97,80,51,0.00,40.00,6,3,0,0.19
2013-10-7,62,53,38,48,43,36,92,72,46,0.00,40.00,7,4,0,0.05
2013-10-8,67,52,35,54,46,34,95,81,56,0.00,40.00,10,4,0,0.00
2013-10-9,72,64,56,54,50,47,80,62,45,0.00,40.00,8,6,0,0.00
2013-10-10,70,56,39,56,50,38,96,80,57,0.00,40.00,6,2,0,0.00
2013-10-11,67,57,42,57,50,41,97,79,51,0.00,40.00,8,3,0,0.00
2013-10-12,65,59,55,59,52,-100,94,78,62,0.00,40.00,11,7,0,0.05
2013-10-13,57,52,43,44,41,38,87,66,52,0.00,40.00,7,4,0,0.00
2013-10-14,58,46,31,44,39,30,97,78,57,0.00,40.00,4,1,0,0.00
2013-10-15,56,53,48,54,50,44,96,89,80,0.00,40.00,7,3,0,0.56
2013-10-16,53,49,46,50,44,37,95,81,70,0.00,40.00,6,5,0,0.14
2013-10-17,50,42,32,38,35,31,95,78,56,0.00,40.00,3,1,0,0.00
2013-10-18,51,45,33,45,42,32,96,89,75,0.00,40.00,5,2,0,0.17
2013-10-19,52,44,32,39,32,-100,91,68,40,0.00,40.00,5,3,0,0.00
2013-10-20,48,43,40,43,36,33,95,78,62,0.00,40.00,6,3,0,0.11
2013-10-21,45,40,35,43,31,20,93,71,52,0.00,40.00,7,5,0,0.06
2013-10-22,45,39,35,32,29,25,78,65,50,0.00,40.00,9,7,0,0.00
2013-10-23,43,38,35,29,26,23,74,61,44,0.00,40.00,7,6,0,0.00
2013-10-24,44,38,35,30,28,25,76,67,46,0.00,40.00,7,6,0,0.00
2013-10-25,48,40,35,32,28,24,80,63,46,0.00,40.00,9,5,0,0.00
2013-10-26,50,45,40,37,28,-100,63,53,47,0.00,40.00,10,8,0,0.00
2013-10-27,48,43,38,33,30,24,81,60,48,0.00,40.00,9,4,0,0.00
2013-10-28,43,35,26,33,23,-100,85,64,46,0.00,40.00,10,5,0,0.00
2013-10-29,41,35,25,35,30,21,90,80,68,0.00,40.00,3,1,0,0.01
2013-10-30,52,46,40,51,44,36,95,90,81,0.00,40.00,8,3,0,0.08
2013-10-31,55,53,51,54,52,51,97,97,96,0.00,40.00,5,2,0,0.72
2013-11-1,52,47,43,51,42,38,97,84,73,0.00,40.00,8,6,0,0.56
2013-11-2,42,39,31,37,32,-100,94,79,68,0.00,40.00,6,4,0,0.04
2013-11-3,45,43,32,38,35,31,95,74,64,0.00,40.00,10,6,0,0.01
2013-11-4,49,47,44,42,39,36,81,75,69,0.00,40.00,16,12,0,0.00
2013-11-5,52,48,43,48,41,34,96,78,50,0.00,40.00,10,4,0,0.94
2013-11-6,49,41,35,47,36,23,96,84,62,0.00,40.00,11,8,0,0.29
2013-11-7,38,35,33,26,24,22,75,63,56,0.00,40.00,9,7,0,0.00
2013-11-8,44,38,34,37,26,22,76,64,52,0.00,40.00,11,6,0,0.02
2013-11-9,46,42,40,41,34,-100,91,74,63,0.00,40.00,13,10,0,0.47
2013-11-10,43,41,39,31,29,26,71,62,50,0.00,40.00,11,8,0,0.00
2013-11-11,40,34,28,33,22,10,79,62,43,0.00,40.00,14,10,0,0.00
2013-11-12,29,27,24,12,11,8,60,50,41,0.00,40.00,7,6,0,0.00
2013-11-13,28,26,25,20,17,13,70,66,59,0.00,40.00,9,8,0,0.00
2013-11-14,42,40,38,33,28,24,82,61,50,0.00,40.00,7,5,0,0.00
2013-11-15,50,42,37,36,34,31,92,74,58,0.00,40.00,5,4,0,0.00
2013-11-16,50,41,37,48,34,-100,95,87,86,0.00,40.00,16,10,0,0.08
2013-11-17,53,49,44,52,47,38,96,94,81,0.00,40.00,14,7,0,0.17
2013-11-18,41,37,34,33,26,20,71,64,55,0.00,40.00,13,12,0,0.00
2013-11-19,35,33,30,27,23,19,79,66,50,0.00,40.00,5,4,0,0.00
2013-11-20,40,39,37,33,32,31,78,74,70,0.00,40.00,13,9,0,0.01
2013-11-21,40,38,37,36,35,34,94,88,84,0.00,40.00,6,3,0,0.00
2013-11-22,33,30,28,31,22,12,91,70,47,0.00,40.00,12,9,0,0.01
2013-11-23,27,18,14,13,0,-100,60,51,43,0.00,40.00,12,11,0,0.00
2013-11-24,23,18,14,6,4,2,67,55,43,0.00,40.00,9,7,0,0.00
2013-11-25,33,30,26,27,19,9,76,64,46,0.00,40.00,11,10,0,0.00
2013-11-26,33,26,16,27,16,5,90,67,51,0.00,40.00,10,8,0,0.00
2013-11-27,25,21,15,16,12,7,84,68,51,0.00,40.00,10,8,0,0.00
2013-11-28,25,22,17,21,18,13,93,85,71,0.00,40.00,8,3,0,0.00
2013-11-29,27,23,16,22,18,14,94,78,63,0.00,40.00,7,3,0,0.00
2013-11-30,36,31,26,25,18,-100,87,67,64,0.00,40.00,8,4,0,0.02
2013-12-1,35,32,29,29,27,24,88,80,70,0.00,40.00,5,2,0,0.00
2013-12-2,38,30,24,27,23,20,93,79,50,0.00,40.00,1,0,0,0.00
2013-12-3,35,32,31,30,28,25,96,82,68,0.00,40.00,7,4,0,0.00
2013-12-4,43,36,32,42,36,31,97,96,96,0.00,40.00,9,4,0,0.27
2013-12-5,42,25,14,40,17,4,92,70,57,0.00,40.00,12,11,0,0.00
2013-12-6,15,11,8,5,3,2,82,71,57,0.00,40.00,10,8,0,0.00
2013-12-7,12,8,6,4,-2,-100,86,69,57,0.00,40.00,8,7,0,0.00
2013-12-8,18,9,3,17,5,-3,93,80,66,0.00,40.00,7,4,0,0.00
2013-12-9,22,15,2,21,10,-5,94,78,61,0.00,40.00,12,7,0,0.00
2013-12-10,11,5,1,0,-2,-5,78,72,60,0.00,40.00,9,7,0,0.00
2013-12-11,8,6,4,0,-3,-7,76,67,50,0.00,40.00,10,8,0,0.00
2013-12-12,16,12,7,5,3,0,72,66,61,0.00,40.00,8,7,0,0.00
2013-12-13,16,14,13,7,4,2,71,63,59,0.00,40.00,7,6,0,0.00
2013-12-14,22,18,15,20,10,-100,93,80,75,0.00,40.00,5,3,0,0.00
2013-12-15,19,14,11,18,6,0,93,71,52,0.00,40.00,10,8,0,0.00
2013-12-16,17,10,2,10,6,-3,88,81,72,0.00,40.00,7,4,0,0.00
2013-12-17,25,17,12,21,13,8,90,84,73,0.00,40.00,7,4,0,0.00
2013-12-18,28,20,12,20,11,5,73,69,62,0.00,40.00,7,4,0,0.00
2013-12-19,27,22,17,20,16,13,85,78,65,0.00,40.00,9,6,0,0.00
2013-12-20,23,21,19,20,18,15,91,88,84,0.00,40.00,8,7,0,0.00
2013-12-21,26,24,23,23,17,-100,95,86,83,0.00,40.00,6,5,0,0.00
2013-12-22,27,23,20,23,19,15,92,86,81,0.00,40.00,9,8,0,0.00
2013-12-23,20,18,15,17,14,9,90,82,67,0.00,40.00,6,4,0,0.00
2013-12-24,17,10,2,6,2,-2,84,72,51,0.00,40.00,6,3,0,0.00
2013-12-25,16,14,12,13,10,6,88,81,75,0.00,40.00,8,5,0,0.00
2013-12-26,16,12,8,14,7,3,90,79,69,0.00,40.00,5,3,0,0.00
2013-12-27,32,20,4,26,14,1,88,80,72,0.00,40.00,9,4,0,0.00
2013-12-28,37,30,27,29,20,-100,93,78,73,0.00,40.00,5,3,0,0.00
2013-12-29,27,16,4,25,9,-8,95,72,54,0.00,40.00,13,9,0,0.00
2013-12-30,1,-3,-9,-7,-11,-14,76,68,59,0.00,40.00,7,4,0,0.00
2013-12-31,5,0,-5,-9,-11,-12,72,61,53,0.00,40.00,8,6,0,0.00
2014-1-1,9,2,-6,0,-6,-14,72,67,59,0.00,40.00,8,6,0,0.00
2014-1-2,12,6,2,-1,-3,-7,78,66,50,0.00,40.00,8,7,0,0.00